createdAt,value
2018-11-25T00:02:01.351Z,29.40
2018-11-25T00:04:31.933Z,19.97
2018-11-25T00:07:02.991Z,31.43
2018-11-25T00:09:33.443Z,17.73
2018-11-25T00:12:03.931Z,18.33
2018-11-25T00:14:34.589Z,20.30
2018-11-25T00:17:05.371Z,23.33
2018-11-25T00:19:36.241Z,19.10
2018-11-25T00:22:06.775Z,29.90
2018-11-25T00:24:37.991Z,19.87
2018-11-25T00:27:10.032Z,21.77
2018-11-25T00:29:40.853Z,22.60
2018-11-25T00:32:12.111Z,14.73
2018-11-25T00:34:43.796Z,17.13
2018-11-25T00:37:14.632Z,28.87
2018-11-25T00:39:45.332Z,37.17
2018-11-25T00:42:16.750Z,49.77
2018-11-25T00:44:47.932Z,18.40
2018-11-25T00:47:19.152Z,28.97
2018-11-25T00:50:00.814Z,20.27
2018-11-25T00:52:34.436Z,20.73
2018-11-25T00:55:06.491Z,17.47
2018-11-25T00:57:38.373Z,27.37
2018-11-25T01:00:14.236Z,18.40
2018-11-25T01:02:45.364Z,15.07
2018-11-25T01:05:16.232Z,15.60
2018-11-25T01:07:46.979Z,18.87
2018-11-25T01:10:18.876Z,17.73
2018-11-25T01:12:49.616Z,24.60
2018-11-25T01:15:20.252Z,21.13
2018-11-25T01:17:52.200Z,28.17
2018-11-25T01:20:24.996Z,21.93
2018-11-25T01:22:56.999Z,22.20
2018-11-25T01:25:27.931Z,23.37
2018-11-25T01:28:02.819Z,23.13
2018-11-25T01:30:33.851Z,19.53
2018-11-25T01:33:06.932Z,39.63
2018-11-25T01:35:39.252Z,29.77
2018-11-25T01:38:11.857Z,25.97
2018-11-25T01:40:43.491Z,26.60
2018-11-25T01:43:14.382Z,29.90
2018-11-25T01:45:46.256Z,30.87
2018-11-25T01:48:18.981Z,28.07
2018-11-25T01:50:50.133Z,25.83
2018-11-25T01:53:20.911Z,24.23
2018-11-25T01:55:51.912Z,33.90
2018-11-25T01:58:22.659Z,21.97
2018-11-25T02:00:53.471Z,30.33
2018-11-25T02:03:25.010Z,49.83
2018-11-25T02:05:56.094Z,46.07
2018-11-25T02:08:27.431Z,36.23
2018-11-25T02:10:58.505Z,33.20
2018-11-25T02:13:29.213Z,42.77
2018-11-25T02:15:59.265Z,50.47
2018-11-25T02:18:29.772Z,33.33
2018-11-25T02:21:00.353Z,58.20
2018-11-25T02:23:31.793Z,64.87
2018-11-25T02:26:02.453Z,40.93
2018-11-25T02:28:33.560Z,79.23
2018-11-25T02:31:04.571Z,47.20
2018-11-25T02:33:35.253Z,59.97
2018-11-25T02:36:06.099Z,85.83
2018-11-25T02:38:36.246Z,89.77
2018-11-25T02:41:06.813Z,64.80
2018-11-25T02:43:38.111Z,51.17
2018-11-25T02:46:09.690Z,55.27
2018-11-25T02:48:40.332Z,55.87
2018-11-25T02:51:11.093Z,62.77
2018-11-25T02:53:41.890Z,40.63
2018-11-25T02:56:12.510Z,41.10
2018-11-25T02:58:43.705Z,45.03
2018-11-25T03:04:28.756Z,52.17
2018-11-25T03:07:00.096Z,44.13
2018-11-25T03:09:30.996Z,51.97
2018-11-25T03:12:01.929Z,37.67
2018-11-25T03:14:33.239Z,46.53
2018-11-25T03:17:04.477Z,34.27
2018-11-25T03:19:35.816Z,56.37
2018-11-25T03:22:07.217Z,29.07
2018-11-25T03:24:38.477Z,46.60
2018-11-25T03:27:09.218Z,53.50
2018-11-25T03:29:40.610Z,41.07
2018-11-25T03:32:11.157Z,47.20
2018-11-25T03:34:42.563Z,42.43
2018-11-25T03:37:13.298Z,42.73
2018-11-25T03:39:43.996Z,43.63
2018-11-25T03:42:14.776Z,35.40
2018-11-25T03:44:45.955Z,42.70
2018-11-25T03:47:18.357Z,46.37
2018-11-25T03:49:49.156Z,46.10
2018-11-25T03:52:20.017Z,42.67
2018-11-25T03:54:51.337Z,50.67
2018-11-25T03:57:22.096Z,57.27
2018-11-25T03:59:52.311Z,49.07
2018-11-25T04:02:22.795Z,50.53
2018-11-25T04:04:52.997Z,53.60
2018-11-25T04:07:23.616Z,38.33
2018-11-25T04:09:54.842Z,30.20
2018-11-25T04:12:25.949Z,35.93
2018-11-25T04:14:57.536Z,35.57
2018-11-25T04:17:28.349Z,59.77
2018-11-25T04:19:59.616Z,40.57
2018-11-25T04:22:30.238Z,48.63
2018-11-25T04:25:01.077Z,101.53
2018-11-25T04:27:31.796Z,30.70
2018-11-25T04:30:03.475Z,44.30
2018-11-25T04:32:34.060Z,21.67
2018-11-25T04:35:05.076Z,32.50
2018-11-25T04:37:35.976Z,24.93
2018-11-25T04:40:09.149Z,22.90
2018-11-25T04:42:39.776Z,32.87
2018-11-25T04:45:13.335Z,29.53
2018-11-25T04:47:45.224Z,28.57
2018-11-25T04:50:18.844Z,38.67
2018-11-25T04:52:50.115Z,23.53
2018-11-25T04:55:20.301Z,35.60
2018-11-25T04:57:51.549Z,66.43
2018-11-25T05:00:22.657Z,62.47
2018-11-25T05:02:53.697Z,25.97
2018-11-25T05:05:24.441Z,27.63
2018-11-25T05:07:54.786Z,20.87
2018-11-25T05:10:25.456Z,25.77
2018-11-25T05:12:57.237Z,26.03
2018-11-25T05:15:28.036Z,38.17
2018-11-25T05:17:58.995Z,30.70
2018-11-25T05:20:29.795Z,33.10
2018-11-25T05:23:00.736Z,40.13
2018-11-25T05:25:31.777Z,58.97
2018-11-25T05:28:03.157Z,38.60
2018-11-25T05:30:33.856Z,28.80
2018-11-25T05:33:06.266Z,43.83
2018-11-25T05:35:37.216Z,26.40
2018-11-25T05:38:08.896Z,27.10
2018-11-25T05:40:39.583Z,25.13
2018-11-25T05:43:10.336Z,35.53
2018-11-25T05:45:41.155Z,48.17
2018-11-25T05:48:12.317Z,43.27
2018-11-25T05:50:43.459Z,43.17
2018-11-25T05:53:14.198Z,33.37
2018-11-25T05:55:45.056Z,47.87
2018-11-25T05:58:15.737Z,32.20
2018-11-25T06:00:46.675Z,50.53
2018-11-25T06:03:17.995Z,34.00
2018-11-25T06:05:48.776Z,40.13
2018-11-25T06:08:20.095Z,34.67
2018-11-25T06:10:51.200Z,39.47
2018-11-25T06:13:22.476Z,35.00
2018-11-25T06:15:53.015Z,29.63
2018-11-25T06:18:24.243Z,34.60
2018-11-25T06:20:55.435Z,36.43
2018-11-25T06:23:26.876Z,26.63
2018-11-25T06:25:57.736Z,30.03
2018-11-25T06:28:28.497Z,34.70
2018-11-25T06:30:58.958Z,36.13
2018-11-25T06:33:30.594Z,31.43
2018-11-25T06:36:01.537Z,32.77
2018-11-25T06:38:32.496Z,36.67
2018-11-25T06:41:03.616Z,39.27
2018-11-25T06:43:34.355Z,28.83
2018-11-25T06:46:08.596Z,41.97
2018-11-25T06:48:39.315Z,69.93
2018-11-25T06:51:09.916Z,41.07
2018-11-25T06:53:41.042Z,33.77
2018-11-25T06:56:11.948Z,56.00
2018-11-25T06:58:43.055Z,55.57
2018-11-25T07:01:13.765Z,44.37
2018-11-25T07:03:44.855Z,46.23
2018-11-25T07:06:15.660Z,33.00
2018-11-25T07:08:46.975Z,37.40
2018-11-25T07:11:17.568Z,39.17
2018-11-25T07:13:48.411Z,36.60
2018-11-25T07:16:20.098Z,46.27
2018-11-25T07:18:50.976Z,36.03
2018-11-25T07:21:22.117Z,49.70
2018-11-25T07:23:53.095Z,44.20
2018-11-25T07:26:24.595Z,41.70
2018-11-25T07:28:56.244Z,50.23
2018-11-25T07:31:26.977Z,51.23
2018-11-25T07:33:58.335Z,33.20
2018-11-25T07:36:29.696Z,55.10
2018-11-25T07:39:00.797Z,45.27
2018-11-25T07:41:31.476Z,48.10
2018-11-25T07:44:02.515Z,52.47
2018-11-25T07:46:33.558Z,42.33
2018-11-25T07:49:04.595Z,48.13
2018-11-25T07:51:36.280Z,64.67
2018-11-25T07:54:08.255Z,57.53
2018-11-25T07:56:39.155Z,54.00
2018-11-25T07:59:10.102Z,56.37
2018-11-25T08:01:41.057Z,58.17
2018-11-25T08:04:12.237Z,48.63
2018-11-25T08:06:43.150Z,42.27
2018-11-25T08:09:14.197Z,39.47
2018-11-25T08:11:44.415Z,42.47
2018-11-25T08:14:15.216Z,64.53
2018-11-25T08:16:45.835Z,57.90
2018-11-25T08:19:17.579Z,58.87
2018-11-25T08:21:50.015Z,56.93
2018-11-25T08:24:21.936Z,77.37
2018-11-25T08:26:52.756Z,55.83
2018-11-25T08:29:23.515Z,54.03
2018-11-25T08:31:54.815Z,39.50
2018-11-25T08:34:26.816Z,27.43
2018-11-25T08:36:57.696Z,24.67
2018-11-25T08:39:28.688Z,21.87
2018-11-25T08:41:59.777Z,20.77
2018-11-25T08:44:31.576Z,26.23
2018-11-25T08:47:02.335Z,23.97
2018-11-25T08:49:33.237Z,22.60
2018-11-25T08:52:03.918Z,23.27
2018-11-25T08:54:34.518Z,21.40
2018-11-25T08:57:06.215Z,21.40
2018-11-25T08:59:36.977Z,22.30
2018-11-25T09:02:07.819Z,17.77
2018-11-25T09:04:38.980Z,15.13
2018-11-25T09:07:09.636Z,12.93
2018-11-25T09:09:40.490Z,13.27
2018-11-25T09:12:11.436Z,24.87
2018-11-25T09:14:42.516Z,35.50
2018-11-25T09:17:13.335Z,41.10
2018-11-25T09:19:45.236Z,46.77
2018-11-25T09:22:16.276Z,27.43
2018-11-25T09:24:46.975Z,31.53
2018-11-25T09:27:18.249Z,20.67
2018-11-25T09:29:49.396Z,23.10
2018-11-25T09:32:23.126Z,31.80
2018-11-25T09:34:50.860Z,43.53
2018-11-25T09:37:21.796Z,27.50
2018-11-25T09:39:53.470Z,18.33
2018-11-25T09:42:24.598Z,17.23
2018-11-25T09:44:55.955Z,18.83
2018-11-25T09:47:26.959Z,16.30
2018-11-25T09:49:57.834Z,17.70
2018-11-25T09:52:28.796Z,18.10
2018-11-25T09:54:59.186Z,15.07
2018-11-25T09:57:29.796Z,18.57
2018-11-25T10:00:01.535Z,17.57
2018-11-25T10:02:32.944Z,21.80
2018-11-25T10:05:03.596Z,19.63
2018-11-25T10:07:34.455Z,22.43
2018-11-25T10:10:08.159Z,23.20
2018-11-25T10:12:39.296Z,22.67
2018-11-25T10:15:10.964Z,18.63
2018-11-25T10:17:41.727Z,21.07
2018-11-25T10:20:14.703Z,20.10
2018-11-25T10:22:45.815Z,25.50
2018-11-25T10:25:17.215Z,22.13
2018-11-25T10:27:48.036Z,18.63
2018-11-25T10:30:20.757Z,20.83
2018-11-25T10:32:54.995Z,24.17
2018-11-25T10:35:25.824Z,21.20
2018-11-25T10:37:56.655Z,23.27
2018-11-25T10:40:27.553Z,23.67
2018-11-25T10:42:58.399Z,23.07
2018-11-25T10:45:29.635Z,19.90
2018-11-25T10:48:00.356Z,25.43
2018-11-25T10:50:31.355Z,24.57
2018-11-25T10:53:02.582Z,26.67
2018-11-25T10:55:33.978Z,24.37
2018-11-25T10:58:05.059Z,23.77
2018-11-25T11:00:41.856Z,21.37
2018-11-25T11:03:17.595Z,28.93
2018-11-25T11:05:54.676Z,25.37
2018-11-25T11:08:25.996Z,28.23
2018-11-25T11:10:56.816Z,27.90
2018-11-25T11:13:27.457Z,27.60
2018-11-25T11:15:58.376Z,29.83
2018-11-25T11:18:29.195Z,30.50
2018-11-25T11:21:00.098Z,29.20
2018-11-25T11:23:31.175Z,27.87
2018-11-25T11:26:06.708Z,29.40
2018-11-25T11:28:33.077Z,26.60
2018-11-25T11:31:04.379Z,31.33
2018-11-25T11:33:35.497Z,33.03
2018-11-25T11:36:06.359Z,30.10
2018-11-25T11:38:37.397Z,34.37
2018-11-25T11:41:08.657Z,33.40
2018-11-25T11:43:40.216Z,29.80
2018-11-25T11:46:11.456Z,33.30
2018-11-25T11:48:42.275Z,29.17
2018-11-25T11:51:13.216Z,33.03
2018-11-25T11:53:43.475Z,39.70
2018-11-25T11:56:14.194Z,39.27
2018-11-25T11:58:44.655Z,32.70
2018-11-25T12:01:15.577Z,29.07
2018-11-25T12:03:46.815Z,37.17
2018-11-25T12:06:18.076Z,32.77
2018-11-25T12:08:49.257Z,34.40
2018-11-25T12:11:20.037Z,33.63
2018-11-25T12:13:50.976Z,29.07
2018-11-25T12:16:21.775Z,35.27
2018-11-25T12:18:52.836Z,35.53
2018-11-25T12:21:23.816Z,29.97
2018-11-25T12:23:54.816Z,32.37
2018-11-25T12:26:25.877Z,33.23
2018-11-25T12:28:57.136Z,31.10
2018-11-25T12:31:27.757Z,32.03
2018-11-25T12:33:58.695Z,32.43
2018-11-25T12:36:30.038Z,32.50
2018-11-25T12:39:01.317Z,36.87
2018-11-25T12:41:32.815Z,38.23
2018-11-25T12:44:03.645Z,38.93
2018-11-25T12:46:34.401Z,35.17
2018-11-25T12:49:05.556Z,45.20
2018-11-25T12:51:36.995Z,36.90
2018-11-25T12:54:07.955Z,31.50
2018-11-25T12:56:38.675Z,35.07
2018-11-25T12:59:09.936Z,42.30
2018-11-25T13:01:40.511Z,35.97
2018-11-25T13:04:12.396Z,36.90
2018-11-25T13:06:42.336Z,32.90
2018-11-25T13:09:12.935Z,37.63
2018-11-25T13:11:44.494Z,37.33
2018-11-25T13:14:14.376Z,42.27
2018-11-25T13:16:45.384Z,51.37
2018-11-25T13:19:16.478Z,40.13
2018-11-25T13:21:47.484Z,41.10
2018-11-25T13:24:18.516Z,47.10
2018-11-25T13:26:48.855Z,41.23
2018-11-25T13:29:19.358Z,41.43
2018-11-25T13:31:50.017Z,38.50
2018-11-25T13:34:20.715Z,40.17
2018-11-25T13:36:52.344Z,42.67
2018-11-25T13:39:23.599Z,44.40
2018-11-25T13:41:54.837Z,46.63
2018-11-25T13:44:26.857Z,41.07
2018-11-25T13:46:57.955Z,41.17
2018-11-25T13:49:29.557Z,35.23
2018-11-25T13:52:00.692Z,38.20
2018-11-25T13:54:31.615Z,39.33
2018-11-25T13:57:02.976Z,34.93
2018-11-25T13:59:33.861Z,41.80
2018-11-25T14:02:05.216Z,38.93
2018-11-25T14:04:36.295Z,35.27
2018-11-25T14:07:07.696Z,40.83
2018-11-25T14:09:38.717Z,37.20
2018-11-25T14:12:09.736Z,42.87
2018-11-25T14:14:40.876Z,35.97
2018-11-25T14:17:11.745Z,41.87
2018-11-25T14:19:42.656Z,28.63
2018-11-25T14:22:14.076Z,30.00
2018-11-25T14:24:45.060Z,30.53
2018-11-25T14:27:16.085Z,29.80
2018-11-25T14:29:47.196Z,29.57
2018-11-25T14:32:18.318Z,37.50
2018-11-25T14:34:50.676Z,42.30
2018-11-25T14:37:21.260Z,33.80
2018-11-25T14:39:52.296Z,40.40
2018-11-25T14:42:23.490Z,43.87
2018-11-25T14:44:54.516Z,43.57
2018-11-25T14:47:25.596Z,38.20
2018-11-25T14:49:56.084Z,34.57
2018-11-25T14:52:27.535Z,42.70
2018-11-25T14:54:58.436Z,39.03
2018-11-25T14:57:29.056Z,40.77
2018-11-25T14:59:59.875Z,36.60
2018-11-25T15:02:30.879Z,34.07
2018-11-25T15:05:01.275Z,38.53
2018-11-25T15:07:32.115Z,42.77
2018-11-25T15:10:03.140Z,44.13
2018-11-25T15:12:33.560Z,45.70
2018-11-25T15:15:05.016Z,44.10
2018-11-25T15:17:35.919Z,37.83
2018-11-25T15:20:08.957Z,40.43
2018-11-25T15:22:40.095Z,55.63
2018-11-25T15:25:12.838Z,38.27
2018-11-25T15:27:43.938Z,37.60
2018-11-25T15:30:15.297Z,32.43
2018-11-25T15:32:46.936Z,39.17
2018-11-25T15:35:18.370Z,34.23
2018-11-25T15:37:50.024Z,33.80
2018-11-25T15:40:25.481Z,30.43
2018-11-25T15:42:56.575Z,34.30
2018-11-25T15:45:27.095Z,38.50
2018-11-25T15:48:02.857Z,36.30
2018-11-25T15:50:33.536Z,39.90
2018-11-25T15:53:04.775Z,34.70
2018-11-25T15:55:35.377Z,32.63
2018-11-25T15:58:06.109Z,37.53
2018-11-25T16:00:37.002Z,27.90
2018-11-25T16:03:09.751Z,30.97
2018-11-25T16:05:43.058Z,35.63
2018-11-25T16:08:13.818Z,41.20
2018-11-25T16:10:44.756Z,30.23
2018-11-25T16:13:15.143Z,29.17
2018-11-25T16:15:45.984Z,32.73
2018-11-25T16:18:17.186Z,31.67
2018-11-25T16:20:47.577Z,30.47
2018-11-25T16:23:18.116Z,28.90
2018-11-25T16:25:52.044Z,42.30
2018-11-25T16:28:27.872Z,36.10
2018-11-25T16:30:58.619Z,31.33
2018-11-25T16:33:29.257Z,34.77
2018-11-25T16:35:59.819Z,54.60
2018-11-25T16:38:30.429Z,39.97
2018-11-25T16:41:00.995Z,38.20
2018-11-25T16:43:32.075Z,42.77
2018-11-25T16:46:02.696Z,50.73
2018-11-25T16:48:33.235Z,37.63
2018-11-25T16:51:04.301Z,31.27
2018-11-25T16:53:35.336Z,40.37
2018-11-25T16:56:05.735Z,42.53
2018-11-25T16:58:36.537Z,42.73
2018-11-25T17:01:10.179Z,49.73
2018-11-25T17:03:38.177Z,47.40
2018-11-25T17:06:09.897Z,41.87
2018-11-25T17:08:41.836Z,34.20
2018-11-25T17:11:11.970Z,39.07
2018-11-25T17:13:42.509Z,46.57
2018-11-25T17:16:12.828Z,37.13
2018-11-25T17:18:43.310Z,31.83
2018-11-25T17:21:14.401Z,37.30
2018-11-25T17:23:45.219Z,33.23
2018-11-25T17:26:16.115Z,40.63
2018-11-25T17:28:46.397Z,50.03
2018-11-25T17:31:17.097Z,44.83
2018-11-25T17:33:47.718Z,42.63
2018-11-25T17:36:18.535Z,52.60
2018-11-25T17:38:49.186Z,45.50
2018-11-25T17:41:19.331Z,35.73
2018-11-25T17:43:50.256Z,46.27
2018-11-25T17:46:20.736Z,42.97
2018-11-25T17:48:51.815Z,46.83
2018-11-25T17:51:22.575Z,35.60
2018-11-25T17:53:53.036Z,40.43
2018-11-25T17:56:23.335Z,42.63
2018-11-25T17:58:53.737Z,42.07
2018-11-25T18:01:24.735Z,34.07
2018-11-25T18:03:56.060Z,35.03
2018-11-25T18:06:26.704Z,57.27
2018-11-25T18:08:57.555Z,46.50
2018-11-25T18:11:28.228Z,27.13
2018-11-25T18:13:58.621Z,28.83
2018-11-25T18:16:29.076Z,26.33
2018-11-25T18:19:10.594Z,28.93
2018-11-25T18:21:41.490Z,33.87
2018-11-25T18:24:12.037Z,22.77
2018-11-25T18:26:42.779Z,25.00
2018-11-25T18:29:13.676Z,26.07
2018-11-25T18:31:44.076Z,27.13
2018-11-25T18:34:14.477Z,25.47
2018-11-25T18:36:45.409Z,22.20
2018-11-25T18:39:16.039Z,24.40
2018-11-25T18:41:46.898Z,27.67
2018-11-25T18:44:17.967Z,23.50
2018-11-25T18:46:48.757Z,23.50
2018-11-25T18:49:19.716Z,28.70
2018-11-25T18:51:50.356Z,23.60
2018-11-25T18:54:20.764Z,21.67
2018-11-25T18:56:51.295Z,25.30
2018-11-25T18:59:22.156Z,25.27
2018-11-25T19:02:16.316Z,23.53
2018-11-25T19:04:47.162Z,20.47
2018-11-25T19:07:18.629Z,24.77
2018-11-25T19:09:50.897Z,22.43
2018-11-25T19:12:22.395Z,27.97
2018-11-25T19:14:54.057Z,21.23
2018-11-25T19:17:27.299Z,23.23
2018-11-25T19:19:58.816Z,23.00
2018-11-25T19:22:30.096Z,21.47
2018-11-25T19:25:00.838Z,18.87
2018-11-25T19:27:32.637Z,27.70
2018-11-25T19:30:04.220Z,21.87
2018-11-25T19:32:35.236Z,18.83
2018-11-25T19:35:07.155Z,18.17
2018-11-25T19:37:37.976Z,20.93
2018-11-25T19:40:17.117Z,20.80
2018-11-25T19:42:48.276Z,20.10
2018-11-25T19:45:21.656Z,19.00
2018-11-25T19:47:52.895Z,19.77
2018-11-25T19:50:28.455Z,18.37
2018-11-25T19:52:59.275Z,19.30
2018-11-25T19:55:30.819Z,18.20
2018-11-25T19:58:01.757Z,19.20
2018-11-25T20:00:32.701Z,27.47
2018-11-25T20:03:03.577Z,16.90
2018-11-25T20:05:34.878Z,16.17
2018-11-25T20:08:07.300Z,20.40
2018-11-25T20:10:38.816Z,18.87
2018-11-25T20:13:11.809Z,17.77
2018-11-25T20:15:41.367Z,19.57
2018-11-25T20:18:12.000Z,21.33
2018-11-25T20:20:42.806Z,22.03
2018-11-25T20:23:14.024Z,21.57
2018-11-25T20:25:44.748Z,20.27
2018-11-25T20:28:15.107Z,19.53
2018-11-25T20:30:46.353Z,18.93
2018-11-25T20:33:21.984Z,18.93
2018-11-25T20:35:52.481Z,20.70
2018-11-25T20:38:28.896Z,17.20
2018-11-25T20:41:00.036Z,21.70
2018-11-25T20:43:30.895Z,19.43
2018-11-25T20:46:06.357Z,17.87
2018-11-25T20:48:37.482Z,16.33
2018-11-25T20:51:08.256Z,14.73
2018-11-25T20:53:44.001Z,15.77
2018-11-25T20:56:14.336Z,15.50
2018-11-25T20:58:45.376Z,12.93
2018-11-25T21:01:15.556Z,10.07
2018-11-25T21:03:46.259Z,15.10
2018-11-25T21:06:17.877Z,11.93
2018-11-25T21:08:48.115Z,14.17
2018-11-25T21:11:18.642Z,11.50
2018-11-25T21:13:49.496Z,13.20
2018-11-25T21:16:19.896Z,11.77
2018-11-25T21:18:50.991Z,13.70
2018-11-25T21:21:22.395Z,10.00
2018-11-25T21:23:53.256Z,10.67
2018-11-25T21:26:23.540Z,10.30
2018-11-25T21:28:54.417Z,9.47
2018-11-25T21:31:25.057Z,11.47
2018-11-25T21:33:55.801Z,13.27
2018-11-25T21:36:26.836Z,12.17
2018-11-25T21:38:57.736Z,17.53
2018-11-25T21:41:29.223Z,18.90
2018-11-25T21:43:59.889Z,37.10
2018-11-25T21:46:30.410Z,23.40
2018-11-25T21:49:01.196Z,25.90
2018-11-25T21:51:32.456Z,19.10
2018-11-25T21:54:03.780Z,19.80
2018-11-25T21:56:34.778Z,25.73
2018-11-25T21:59:06.217Z,20.87
2018-11-25T22:01:37.216Z,18.13
2018-11-25T22:04:07.676Z,15.50
2018-11-25T22:06:38.358Z,15.00
2018-11-25T22:09:10.593Z,21.07
2018-11-25T22:11:41.538Z,22.83
2018-11-25T22:14:12.417Z,20.23
2018-11-25T22:16:43.252Z,20.90
2018-11-25T22:19:13.635Z,19.00
2018-11-25T22:21:43.936Z,18.23
2018-11-25T22:24:14.335Z,25.60
2018-11-25T22:26:44.757Z,54.43
2018-11-25T22:29:15.196Z,35.63
2018-11-25T22:31:46.204Z,30.53
2018-11-25T22:34:17.019Z,29.43
2018-11-25T22:36:48.897Z,23.87
2018-11-25T22:39:19.617Z,18.60
2018-11-25T22:41:50.301Z,17.23
2018-11-25T22:44:20.817Z,40.30
2018-11-25T22:46:51.318Z,25.30
2018-11-25T22:49:22.018Z,45.17
2018-11-25T22:51:52.915Z,29.67
2018-11-25T22:54:23.440Z,25.93
2018-11-25T22:56:54.115Z,22.13
2018-11-25T22:59:25.316Z,37.43
2018-11-25T23:01:55.951Z,32.47
2018-11-25T23:04:37.176Z,20.33
2018-11-25T23:07:08.256Z,35.20
2018-11-25T23:09:39.797Z,44.37
2018-11-25T23:12:10.856Z,53.13
2018-11-25T23:14:42.199Z,52.43
2018-11-25T23:17:12.302Z,31.37
2018-11-25T23:19:43.616Z,36.63
2018-11-25T23:22:14.155Z,16.23
2018-11-25T23:24:44.676Z,20.40
2018-11-25T23:27:14.976Z,29.10
2018-11-25T23:29:45.557Z,17.93
2018-11-25T23:32:15.924Z,35.33
2018-11-25T23:34:46.616Z,32.50
2018-11-25T23:37:16.936Z,20.03
2018-11-25T23:39:47.469Z,28.07
2018-11-25T23:42:18.455Z,26.63
2018-11-25T23:44:49.537Z,16.33
2018-11-25T23:47:20.275Z,19.20
2018-11-25T23:49:50.811Z,18.30
2018-11-25T23:52:21.036Z,15.03
2018-11-25T23:54:51.379Z,16.37
2018-11-25T23:57:22.006Z,11.93
2018-11-25T23:59:53.215Z,12.03
